createdAt,value
2017-12-28T00:01:29.038Z,-83
2017-12-28T00:03:55.831Z,-85
2017-12-28T00:06:22.940Z,-84
2017-12-28T00:08:49.697Z,-86
2017-12-28T00:11:16.417Z,-84
2017-12-28T00:13:44.683Z,-83
2017-12-28T00:16:11.531Z,-87
2017-12-28T00:18:38.577Z,-86
2017-12-28T00:21:05.338Z,-84
2017-12-28T00:23:31.981Z,-86
2017-12-28T00:25:58.699Z,-84
2017-12-28T00:28:25.472Z,-83
2017-12-28T00:30:52.155Z,-90
2017-12-28T00:33:18.940Z,-89
2017-12-28T00:41:02.596Z,-88
2017-12-28T00:43:29.257Z,-86
2017-12-28T00:45:56.739Z,-86
2017-12-28T00:48:23.540Z,-87
2017-12-28T00:50:50.215Z,-87
2017-12-28T00:53:20.669Z,-86
2017-12-28T00:55:47.335Z,-86
2017-12-28T00:58:14.090Z,-83
2017-12-28T01:00:41.222Z,-83
2017-12-28T01:03:07.876Z,-84
2017-12-28T01:05:34.925Z,-86
2017-12-28T01:08:01.597Z,-83
2017-12-28T01:10:28.374Z,-83
2017-12-28T01:12:55.102Z,-85
2017-12-28T01:15:21.858Z,-90
2017-12-28T01:20:38.247Z,-89
2017-12-28T01:23:14.102Z,-89
2017-12-28T01:25:44.649Z,-90
2017-12-28T01:28:14.599Z,-88
2017-12-28T01:30:41.246Z,-83
2017-12-28T01:33:08.039Z,-82
2017-12-28T01:35:34.716Z,-84
2017-12-28T01:38:01.385Z,-83
2017-12-28T01:40:28.198Z,-82
2017-12-28T01:42:54.913Z,-83
2017-12-28T01:45:21.617Z,-86
2017-12-28T01:50:38.255Z,-88
2017-12-28T01:53:04.909Z,-90
2017-12-28T01:55:31.544Z,-88
2017-12-28T01:57:58.216Z,-87
2017-12-28T02:00:32.213Z,-88
2017-12-28T02:03:08.235Z,-87
2017-12-28T02:10:53.347Z,-89
2017-12-28T02:13:20.598Z,-88
2017-12-28T02:15:47.512Z,-83
2017-12-28T02:18:14.288Z,-83
2017-12-28T02:20:40.933Z,-84
2017-12-28T02:23:07.591Z,-84
2017-12-28T02:25:34.376Z,-83
2017-12-28T02:28:02.683Z,-82
2017-12-28T02:30:29.337Z,-84
2017-12-28T02:32:56.000Z,-88
2017-12-28T02:38:14.168Z,-87
2017-12-28T02:43:19.358Z,-87
2017-12-28T02:45:46.025Z,-83
2017-12-28T02:48:12.741Z,-83
2017-12-28T02:50:39.453Z,-83
2017-12-28T02:53:06.112Z,-82
2017-12-28T02:55:32.916Z,-82
2017-12-28T02:57:59.599Z,-83
2017-12-28T03:00:26.305Z,-82
2017-12-28T03:05:32.235Z,-85
2017-12-28T03:08:02.709Z,-87
2017-12-28T03:10:38.133Z,-89
2017-12-28T03:13:08.724Z,-87
2017-12-28T03:15:35.368Z,-87
2017-12-28T03:18:02.142Z,-83
2017-12-28T03:20:28.834Z,-83
2017-12-28T03:22:55.513Z,-83
2017-12-28T03:25:22.286Z,-82
2017-12-28T03:27:48.949Z,-82
2017-12-28T03:30:15.631Z,-82
2017-12-28T03:32:42.382Z,-82
2017-12-28T03:35:14.812Z,-83
2017-12-28T03:37:41.614Z,-83
2017-12-28T03:40:08.299Z,-84
2017-12-28T03:42:35.107Z,-85
2017-12-28T03:45:02.797Z,-86
2017-12-28T03:50:07.901Z,-90
2017-12-28T03:55:14.427Z,-89
2017-12-28T04:00:26.165Z,-88
2017-12-28T04:02:52.838Z,-89
2017-12-28T04:05:19.504Z,-88
2017-12-28T04:13:04.533Z,-90
2017-12-28T04:18:10.094Z,-82
2017-12-28T04:20:36.765Z,-84
2017-12-28T04:23:03.420Z,-85
2017-12-28T04:25:32.722Z,-84
2017-12-28T04:27:59.453Z,-84
2017-12-28T04:30:26.184Z,-85
2017-12-28T04:32:56.769Z,-84
2017-12-28T04:35:23.564Z,-82
2017-12-28T04:37:50.209Z,-82
2017-12-28T04:40:16.900Z,-83
2017-12-28T04:42:43.629Z,-82
2017-12-28T04:45:10.368Z,-83
2017-12-28T04:47:37.134Z,-83
2017-12-28T04:50:03.794Z,-84
2017-12-28T04:52:32.652Z,-83
2017-12-28T04:54:59.317Z,-88
2017-12-28T04:57:25.964Z,-83
2017-12-28T04:59:56.677Z,-86
2017-12-28T05:05:02.646Z,-87
2017-12-28T05:10:08.865Z,-87
2017-12-28T05:12:38.750Z,-85
2017-12-28T05:15:05.405Z,-87
2017-12-28T05:17:32.221Z,-82
2017-12-28T05:19:58.864Z,-82
2017-12-28T05:22:25.532Z,-83
2017-12-28T05:24:52.174Z,-83
2017-12-28T05:27:18.996Z,-81
2017-12-28T05:29:45.648Z,-82
2017-12-28T05:37:32.750Z,-88
2017-12-28T05:40:02.858Z,-88
2017-12-28T05:45:20.325Z,-89
2017-12-28T05:47:46.983Z,-82
2017-12-28T05:50:13.786Z,-82
2017-12-28T05:52:40.480Z,-83
2017-12-28T05:55:07.266Z,-80
2017-12-28T05:57:34.610Z,-82
2017-12-28T06:00:01.334Z,-82
2017-12-28T06:02:28.311Z,-86
2017-12-28T06:04:56.654Z,-90
2017-12-28T06:07:32.323Z,-87
2017-12-28T06:09:58.953Z,-86
2017-12-28T06:12:25.638Z,-88
2017-12-28T06:14:56.771Z,-89
2017-12-28T06:17:32.381Z,-86
2017-12-28T06:19:59.023Z,-82
2017-12-28T06:22:25.691Z,-81
2017-12-28T06:24:52.385Z,-82
2017-12-28T06:27:19.145Z,-83
2017-12-28T06:29:45.817Z,-83
2017-12-28T06:32:12.523Z,-83
2017-12-28T06:34:39.243Z,-84
2017-12-28T06:37:05.913Z,-81
2017-12-28T06:39:32.554Z,-85
2017-12-28T06:41:59.248Z,-82
2017-12-28T06:44:26.037Z,-82
2017-12-28T06:46:53.111Z,-81
2017-12-28T06:49:19.885Z,-87
2017-12-28T06:51:46.577Z,-88
2017-12-28T06:54:26.244Z,-88
2017-12-28T06:56:52.898Z,-89
2017-12-28T06:59:20.782Z,-88
2017-12-28T07:01:50.780Z,-85
2017-12-28T07:04:17.508Z,-85
2017-12-28T07:06:44.766Z,-83
2017-12-28T07:09:14.699Z,-87
2017-12-28T07:11:44.789Z,-88
2017-12-28T07:14:11.438Z,-84
2017-12-28T07:16:38.118Z,-86
2017-12-28T07:19:04.827Z,-82
2017-12-28T07:21:31.541Z,-82
2017-12-28T07:23:58.224Z,-83
2017-12-28T07:26:24.882Z,-83
2017-12-28T07:28:56.823Z,-83
2017-12-28T07:31:23.488Z,-83
2017-12-28T07:33:50.143Z,-82
2017-12-28T07:36:16.966Z,-83
2017-12-28T07:38:43.611Z,-81
2017-12-28T07:41:10.305Z,-81
2017-12-28T07:43:37.105Z,-83
2017-12-28T07:46:03.877Z,-82
2017-12-28T07:48:30.536Z,-85
2017-12-28T07:51:02.935Z,-88
2017-12-28T07:53:38.320Z,-86
2017-12-28T07:58:43.523Z,-87
2017-12-28T08:01:14.863Z,-86
2017-12-28T08:03:41.519Z,-86
2017-12-28T08:06:08.313Z,-82
2017-12-28T08:08:38.825Z,-84
2017-12-28T08:11:05.530Z,-83
2017-12-28T08:13:32.310Z,-81
2017-12-28T08:15:59.003Z,-83
2017-12-28T08:18:25.779Z,-82
2017-12-28T08:20:56.766Z,-87
2017-12-28T08:23:32.355Z,-86
2017-12-28T08:25:58.989Z,-88
2017-12-28T08:28:27.816Z,-87
2017-12-28T08:33:33.730Z,-87
2017-12-28T08:36:00.515Z,-90
2017-12-28T08:38:38.388Z,-88
2017-12-28T08:41:08.726Z,-89
2017-12-28T08:43:38.891Z,-89
2017-12-28T08:46:05.530Z,-83
2017-12-28T08:48:32.192Z,-88
2017-12-28T08:50:58.949Z,-89
2017-12-28T08:53:26.861Z,-90
2017-12-28T08:55:56.719Z,-87
2017-12-28T08:58:32.482Z,-86
2017-12-28T09:03:37.987Z,-83
2017-12-28T09:06:04.656Z,-83
2017-12-28T09:08:31.438Z,-82
2017-12-28T09:10:58.146Z,-85
2017-12-28T09:13:24.903Z,-88
2017-12-28T09:15:51.549Z,-87
2017-12-28T09:18:18.216Z,-86
2017-12-28T09:23:23.747Z,-87
2017-12-28T09:25:50.774Z,-86
2017-12-28T09:28:26.430Z,-86
2017-12-28T09:30:53.102Z,-89
2017-12-28T09:35:59.803Z,-87
2017-12-28T09:38:26.944Z,-88
2017-12-28T09:40:54.002Z,-88
2017-12-28T09:43:20.711Z,-89
2017-12-28T09:45:47.453Z,-90
2017-12-28T09:48:14.113Z,-86
2017-12-28T09:50:40.793Z,-83
2017-12-28T09:53:07.534Z,-83
2017-12-28T09:55:34.274Z,-82
2017-12-28T09:58:01.015Z,-82
2017-12-28T10:00:27.718Z,-81
2017-12-28T10:02:54.353Z,-82
2017-12-28T10:05:21.033Z,-82
2017-12-28T10:07:47.773Z,-81
2017-12-28T10:10:14.449Z,-81
2017-12-28T10:12:41.098Z,-82
2017-12-28T10:15:07.844Z,-82
2017-12-28T10:17:38.815Z,-83
2017-12-28T10:20:14.473Z,-82
2017-12-28T10:22:41.136Z,-82
2017-12-28T10:25:07.798Z,-81
2017-12-28T10:27:34.714Z,-82
2017-12-28T10:30:01.460Z,-81
2017-12-28T10:32:32.785Z,-82
2017-12-28T10:35:02.994Z,-82
2017-12-28T10:37:29.759Z,-82
2017-12-28T10:39:56.439Z,-82
2017-12-28T10:42:23.151Z,-83
2017-12-28T10:44:50.290Z,-83
2017-12-28T10:47:16.931Z,-84
2017-12-28T10:49:44.999Z,-84
2017-12-28T10:52:20.424Z,-90
2017-12-28T10:54:56.489Z,-87
2017-12-28T10:57:23.186Z,-87
2017-12-28T10:59:49.941Z,-90
2017-12-28T11:04:55.341Z,-90
2017-12-28T11:07:22.022Z,-83
2017-12-28T11:09:48.776Z,-83
2017-12-28T11:12:15.457Z,-83
2017-12-28T11:14:44.911Z,-83
2017-12-28T11:17:11.591Z,-88
2017-12-28T11:19:38.800Z,-84
2017-12-28T11:22:05.479Z,-84
2017-12-28T11:24:32.121Z,-82
2017-12-28T11:26:58.798Z,-82
2017-12-28T11:29:25.564Z,-83
2017-12-28T11:31:52.223Z,-83
2017-12-28T11:34:18.870Z,-83
2017-12-28T11:36:45.517Z,-82
2017-12-28T11:39:12.321Z,-82
2017-12-28T11:41:38.978Z,-81
2017-12-28T11:44:05.667Z,-82
2017-12-28T11:46:32.513Z,-82
2017-12-28T11:48:59.261Z,-82
2017-12-28T11:54:05.081Z,-89
2017-12-28T11:56:38.487Z,-88
2017-12-28T11:59:11.074Z,-88
2017-12-28T12:01:44.664Z,-88
2017-12-28T12:06:52.683Z,-82
2017-12-28T12:09:19.326Z,-81
2017-12-28T12:11:46.096Z,-81
2017-12-28T12:14:12.765Z,-83
2017-12-28T12:16:39.407Z,-84
2017-12-28T12:19:06.084Z,-86
2017-12-28T12:21:32.739Z,-82
2017-12-28T12:23:59.501Z,-82
2017-12-28T12:26:26.162Z,-81
2017-12-28T12:28:52.857Z,-84
2017-12-28T12:31:19.610Z,-82
2017-12-28T12:33:50.977Z,-80
2017-12-28T12:36:17.635Z,-82
2017-12-28T12:38:44.297Z,-82
2017-12-28T12:41:14.966Z,-82
2017-12-28T12:43:41.697Z,-81
2017-12-28T12:46:08.446Z,-89
2017-12-28T12:48:35.106Z,-87
2017-12-28T12:51:01.774Z,-89
2017-12-28T12:53:28.470Z,-85
2017-12-28T12:55:55.217Z,-84
2017-12-28T12:58:26.989Z,-83
2017-12-28T13:00:56.887Z,-83
2017-12-28T13:03:23.745Z,-84
2017-12-28T13:05:50.972Z,-87
2017-12-28T13:08:17.619Z,-85
2017-12-28T13:10:50.608Z,-85
2017-12-28T13:13:20.905Z,-83
2017-12-28T13:15:56.597Z,-84
2017-12-28T13:18:26.869Z,-84
2017-12-28T13:20:56.999Z,-83
2017-12-28T13:28:50.514Z,-87
2017-12-28T13:31:17.221Z,-87
2017-12-28T13:33:44.018Z,-85
2017-12-28T13:38:50.987Z,-87
2017-12-28T13:41:26.601Z,-86
2017-12-28T13:43:53.272Z,-86
2017-12-28T13:46:20.094Z,-83
2017-12-28T13:48:46.811Z,-82
2017-12-28T13:51:15.037Z,-84
2017-12-28T13:53:41.689Z,-82
2017-12-28T13:56:08.898Z,-83
2017-12-28T13:58:35.530Z,-84
2017-12-28T14:01:02.193Z,-83
2017-12-28T14:03:28.901Z,-84
2017-12-28T14:05:55.697Z,-82
2017-12-28T14:11:01.819Z,-88
2017-12-28T14:16:07.603Z,-90
2017-12-28T14:18:34.424Z,-87
2017-12-28T14:21:01.093Z,-87
2017-12-28T14:23:27.725Z,-87
2017-12-28T14:25:54.401Z,-87
2017-12-28T14:28:21.172Z,-88
2017-12-28T14:30:47.872Z,-85
2017-12-28T14:33:15.058Z,-88
2017-12-28T14:35:41.725Z,-89
2017-12-28T14:38:08.425Z,-90
2017-12-28T14:40:35.169Z,-88
2017-12-28T14:45:50.569Z,-86
2017-12-28T14:48:17.266Z,-89
2017-12-28T14:53:23.000Z,-83
2017-12-28T14:55:49.655Z,-83
2017-12-28T14:58:16.318Z,-83
2017-12-28T15:00:43.080Z,-82
2017-12-28T15:03:09.760Z,-83
2017-12-28T15:05:36.437Z,-84
2017-12-28T15:08:03.236Z,-84
2017-12-28T15:10:29.905Z,-86
2017-12-28T15:12:56.574Z,-82
2017-12-28T15:15:23.325Z,-84
2017-12-28T15:17:49.992Z,-83
2017-12-28T15:20:16.665Z,-83
2017-12-28T15:22:43.493Z,-83
2017-12-28T15:25:10.117Z,-89
2017-12-28T15:27:38.969Z,-89
2017-12-28T15:30:05.614Z,-90
2017-12-28T15:32:32.277Z,-89
2017-12-28T15:40:17.976Z,-82
2017-12-28T15:42:44.627Z,-82
2017-12-28T15:45:11.296Z,-82
2017-12-28T15:47:38.140Z,-82
2017-12-28T15:50:06.020Z,-81
2017-12-28T15:52:33.554Z,-83
2017-12-28T15:55:01.063Z,-82
2017-12-28T15:57:28.087Z,-82
2017-12-28T15:59:55.180Z,-82
2017-12-28T16:02:22.227Z,-82
2017-12-28T16:04:48.943Z,-82
2017-12-28T16:07:15.658Z,-81
2017-12-28T16:09:42.984Z,-81
2017-12-28T16:12:10.053Z,-82
2017-12-28T16:14:36.822Z,-83
2017-12-28T16:17:03.478Z,-81
2017-12-28T16:19:30.917Z,-82
2017-12-28T16:21:57.608Z,-83
2017-12-28T16:24:24.439Z,-82
2017-12-28T16:26:51.897Z,-82
2017-12-28T16:29:18.592Z,-81
2017-12-28T16:31:51.035Z,-82
2017-12-28T16:34:17.742Z,-84
2017-12-28T16:36:44.379Z,-84
2017-12-28T16:39:15.139Z,-87
2017-12-28T16:41:41.933Z,-89
2017-12-28T16:44:08.595Z,-88
2017-12-28T16:46:35.434Z,-89
2017-12-28T16:49:02.209Z,-86
2017-12-28T16:51:33.015Z,-88
2017-12-28T16:56:39.209Z,-88
2017-12-28T16:59:05.948Z,-86
2017-12-28T17:01:32.673Z,-85
2017-12-28T17:03:59.765Z,-88
2017-12-28T17:06:26.513Z,-88
2017-12-28T17:14:12.695Z,-85
2017-12-28T17:19:18.622Z,-88
2017-12-28T17:21:45.706Z,-89
2017-12-28T17:26:51.893Z,-87
2017-12-28T17:29:21.152Z,-88
2017-12-28T17:31:47.998Z,-89
2017-12-28T17:34:15.438Z,-86
2017-12-28T17:39:21.198Z,-82
2017-12-28T17:41:48.343Z,-83
2017-12-28T17:44:15.069Z,-83
2017-12-28T17:46:50.770Z,-84
2017-12-28T17:49:26.615Z,-88
2017-12-28T17:54:33.203Z,-87
2017-12-28T17:59:39.180Z,-86
2017-12-28T18:02:09.034Z,-84
2017-12-28T18:04:36.148Z,-83
2017-12-28T18:07:02.966Z,-82
2017-12-28T18:09:33.078Z,-83
2017-12-28T18:12:00.176Z,-82
2017-12-28T18:14:26.982Z,-82
2017-12-28T18:16:53.706Z,-83
2017-12-28T18:19:20.835Z,-81
2017-12-28T18:21:47.565Z,-83
2017-12-28T18:24:14.356Z,-82
2017-12-28T18:26:41.815Z,-82
2017-12-28T18:29:08.635Z,-82
2017-12-28T18:31:36.140Z,-84
2017-12-28T18:34:02.935Z,-83
2017-12-28T18:36:29.984Z,-82
2017-12-28T18:38:56.644Z,-82
2017-12-28T18:44:03.168Z,-89
2017-12-28T18:46:29.908Z,-86
2017-12-28T18:48:56.672Z,-87
2017-12-28T18:51:23.320Z,-89
2017-12-28T18:53:50.443Z,-89
2017-12-28T18:56:17.633Z,-90
2017-12-28T18:58:44.443Z,-89
2017-12-28T19:01:15.202Z,-88
2017-12-28T19:03:42.664Z,-86
2017-12-28T19:06:09.506Z,-88
2017-12-28T19:08:39.242Z,-86
2017-12-28T19:11:06.070Z,-82
2017-12-28T19:13:33.103Z,-82
2017-12-28T19:15:59.840Z,-83
2017-12-28T19:18:26.533Z,-82
2017-12-28T19:20:53.220Z,-84
2017-12-28T19:23:20.114Z,-86
2017-12-28T19:25:46.879Z,-87
2017-12-28T19:28:13.577Z,-88
2017-12-28T19:30:45.105Z,-90
2017-12-28T19:35:51.703Z,-88
2017-12-28T19:38:18.543Z,-88
2017-12-28T19:40:45.368Z,-82
2017-12-28T19:43:12.217Z,-83
2017-12-28T19:45:39.250Z,-84
2017-12-28T19:48:06.129Z,-83
2017-12-28T19:50:32.975Z,-83
2017-12-28T19:53:00.194Z,-83
2017-12-28T19:55:27.033Z,-84
2017-12-28T20:00:32.800Z,-87
2017-12-28T20:02:59.990Z,-88
2017-12-28T20:05:27.229Z,-89
2017-12-28T20:07:53.931Z,-89
2017-12-28T20:10:21.141Z,-90
2017-12-28T20:12:48.242Z,-82
2017-12-28T20:15:15.066Z,-83
2017-12-28T20:17:45.142Z,-82
2017-12-28T20:20:11.863Z,-82
2017-12-28T20:22:39.074Z,-83
2017-12-28T20:25:06.155Z,-83
2017-12-28T20:27:33.015Z,-83
2017-12-28T20:30:00.195Z,-83
2017-12-28T20:32:26.925Z,-83
2017-12-28T20:34:54.072Z,-82
2017-12-28T20:37:21.173Z,-82
2017-12-28T20:39:47.972Z,-83
2017-12-28T20:42:15.067Z,-83
2017-12-28T20:44:42.289Z,-84
2017-12-28T20:47:09.140Z,-83
2017-12-28T20:49:36.421Z,-84
2017-12-28T20:52:03.653Z,-83
2017-12-28T20:54:30.482Z,-83
2017-12-28T20:57:03.286Z,-88
2017-12-28T20:59:30.118Z,-88
2017-12-28T21:04:35.859Z,-89
2017-12-28T21:12:20.994Z,-85
2017-12-28T21:14:47.807Z,-87
2017-12-28T21:17:15.483Z,-84
2017-12-28T21:19:45.215Z,-82
2017-12-28T21:22:12.021Z,-82
2017-12-28T21:27:21.280Z,-83
2017-12-28T21:29:48.513Z,-82
2017-12-28T21:32:15.372Z,-82
2017-12-28T21:34:42.194Z,-84
2017-12-28T21:37:08.889Z,-83
2017-12-28T21:39:36.519Z,-82
2017-12-28T21:42:03.350Z,-83
2017-12-28T21:44:30.205Z,-83
2017-12-28T21:47:03.144Z,-82
2017-12-28T21:49:33.281Z,-82
2017-12-28T21:52:00.178Z,-83
2017-12-28T21:54:27.367Z,-82
2017-12-28T21:56:54.520Z,-84
2017-12-28T22:02:08.762Z,-85
2017-12-28T22:07:15.341Z,-87
2017-12-28T22:09:50.791Z,-88
2017-12-28T22:14:57.190Z,-88
2017-12-28T22:17:24.295Z,-86
2017-12-28T22:19:51.149Z,-83
2017-12-28T22:22:18.338Z,-83
2017-12-28T22:24:50.877Z,-84
2017-12-28T22:27:17.969Z,-84
2017-12-28T22:29:45.083Z,-83
2017-12-28T22:32:12.237Z,-83
2017-12-28T22:34:39.344Z,-86
2017-12-28T22:37:06.524Z,-83
2017-12-28T22:39:33.712Z,-82
2017-12-28T22:42:00.849Z,-82
2017-12-28T22:44:27.573Z,-89
2017-12-28T22:46:54.717Z,-87
2017-12-28T22:49:27.309Z,-86
2017-12-28T22:54:35.026Z,-88
2017-12-28T22:59:45.213Z,-90
2017-12-28T23:02:12.426Z,-89
2017-12-28T23:04:39.165Z,-87
2017-12-28T23:07:06.747Z,-90
2017-12-28T23:09:34.317Z,-89
2017-12-28T23:14:39.976Z,-82
2017-12-28T23:17:07.213Z,-82
2017-12-28T23:19:34.476Z,-83
2017-12-28T23:22:03.341Z,-83
2017-12-28T23:24:30.445Z,-82
2017-12-28T23:26:57.645Z,-83
2017-12-28T23:29:27.362Z,-90
2017-12-28T23:31:54.452Z,-88
2017-12-28T23:34:22.316Z,-88
2017-12-28T23:36:49.532Z,-88
2017-12-28T23:39:16.647Z,-87
2017-12-28T23:41:44.229Z,-87
2017-12-28T23:44:11.750Z,-89
2017-12-28T23:46:38.569Z,-87
2017-12-28T23:49:05.783Z,-89
2017-12-28T23:51:32.479Z,-88
2017-12-28T23:53:59.646Z,-89
2017-12-28T23:59:06.679Z,-82
